Decoded Metar for LDOS (OSIJEK in CROATIA) (IATA:OSI) | Meteo·Mobile Aviation Weather
aviador You're here:

LDOS Decoded Metar

OSIJEK in CROATIA
Report Time2019-01-23 08:00:00
UTC Time2019-01-23 08:17:08
Flight Rules lifr LIFR
Wind120° at 01 kt
W.Decomp.*RWY 11: 1.0 kt HW 0.1 kt RCW
W.Rank120° ranks 6
Current wind is below 120° avg. (6.2)
Visibility0800 m
Phenomena:Light Snow
Clouds:Overcast 003 Hf
Ceiling300 ft
Temp-2°C (ISA -16)
Dew Point-2°C (100% RH)
AAT-4.6°C
QNH1002 hPa
Density Alt-1,273 ft
Elevation292 ft
Report Wrong Elevation
Raw Report
LDOS 230800Z 12001KT 0800 -SN OVC003 M02/M02 Q1002 R11/39//91=

Extra information for LDOS:More info

Metar Taf Metar & Taf Last 4 Metars F.Rules Stats Wind Profile Meteogram Temp Stats Airport Information Weather charts Add Link Nearby VenuesMetar ALERT Operation Metar Decoded Social comments